sensor_id;sensor_type;location;lat;lon;timestamp;P1;durP1;ratioP1;P2;durP2;ratioP2
14584;SDS011;7379;51.506;11.876;2022-08-21T00:01:37;6.70;;;6.10;;
14584;SDS011;7379;51.506;11.876;2022-08-21T00:04:05;7.15;;;6.55;;
14584;SDS011;7379;51.506;11.876;2022-08-21T00:06:32;6.50;;;5.90;;
14584;SDS011;7379;51.506;11.876;2022-08-21T00:09:01;6.57;;;5.97;;
14584;SDS011;7379;51.506;11.876;2022-08-21T00:11:30;7.22;;;6.53;;
14584;SDS011;7379;51.506;11.876;2022-08-21T00:13:57;6.55;;;5.95;;
14584;SDS011;7379;51.506;11.876;2022-08-21T00:16:24;6.20;;;5.70;;
14584;SDS011;7379;51.506;11.876;2022-08-21T00:18:51;7.00;;;6.40;;
14584;SDS011;7379;51.506;11.876;2022-08-21T00:21:18;7.30;;;6.60;;
14584;SDS011;7379;51.506;11.876;2022-08-21T00:23:45;6.55;;;6.03;;
14584;SDS011;7379;51.506;11.876;2022-08-21T00:26:13;6.50;;;5.95;;
14584;SDS011;7379;51.506;11.876;2022-08-21T00:28:40;6.63;;;6.03;;
14584;SDS011;7379;51.506;11.876;2022-08-21T00:31:07;6.13;;;5.63;;
14584;SDS011;7379;51.506;11.876;2022-08-21T00:33:34;6.22;;;5.72;;
14584;SDS011;7379;51.506;11.876;2022-08-21T00:36:01;6.05;;;5.55;;
14584;SDS011;7379;51.506;11.876;2022-08-21T00:38:28;6.05;;;5.50;;
14584;SDS011;7379;51.506;11.876;2022-08-21T00:40:56;6.30;;;5.80;;
14584;SDS011;7379;51.506;11.876;2022-08-21T00:43:28;6.38;;;5.45;;
14584;SDS011;7379;51.506;11.876;2022-08-21T00:45:57;5.82;;;5.32;;
14584;SDS011;7379;51.506;11.876;2022-08-21T00:48:25;5.97;;;5.47;;
14584;SDS011;7379;51.506;11.876;2022-08-21T00:50:53;6.47;;;5.93;;
14584;SDS011;7379;51.506;11.876;2022-08-21T00:53:25;6.28;;;5.78;;
14584;SDS011;7379;51.506;11.876;2022-08-21T00:55:53;6.10;;;5.60;;
14584;SDS011;7379;51.506;11.876;2022-08-21T00:58:21;5.82;;;5.32;;
14584;SDS011;7379;51.506;11.876;2022-08-21T01:00:51;6.38;;;5.80;;
14584;SDS011;7379;51.506;11.876;2022-08-21T01:03:21;6.32;;;5.68;;
14584;SDS011;7379;51.506;11.876;2022-08-21T01:05:49;6.07;;;5.20;;
14584;SDS011;7379;51.506;11.876;2022-08-21T01:08:16;5.72;;;5.22;;
14584;SDS011;7379;51.506;11.876;2022-08-21T01:10:44;5.78;;;5.28;;
14584;SDS011;7379;51.506;11.876;2022-08-21T01:13:13;6.10;;;5.50;;
14584;SDS011;7379;51.506;11.876;2022-08-21T01:15:44;5.70;;;5.20;;
14584;SDS011;7379;51.506;11.876;2022-08-21T01:18:15;6.68;;;5.18;;
14584;SDS011;7379;51.506;11.876;2022-08-21T01:20:44;5.78;;;5.30;;
14584;SDS011;7379;51.506;11.876;2022-08-21T01:23:17;5.30;;;4.80;;
14584;SDS011;7379;51.506;11.876;2022-08-21T01:25:44;5.72;;;5.22;;
14584;SDS011;7379;51.506;11.876;2022-08-21T01:28:12;5.63;;;5.13;;
14584;SDS011;7379;51.506;11.876;2022-08-21T01:30:40;5.15;;;4.75;;
14584;SDS011;7379;51.506;11.876;2022-08-21T01:33:09;5.47;;;4.97;;
14584;SDS011;7379;51.506;11.876;2022-08-21T01:35:36;5.10;;;4.70;;
14584;SDS011;7379;51.506;11.876;2022-08-21T01:38:04;5.07;;;4.60;;
14584;SDS011;7379;51.506;11.876;2022-08-21T01:40:31;4.93;;;4.43;;
14584;SDS011;7379;51.506;11.876;2022-08-21T01:42:58;5.30;;;4.60;;
14584;SDS011;7379;51.506;11.876;2022-08-21T01:45:25;4.32;;;4.03;;
14584;SDS011;7379;51.506;11.876;2022-08-21T01:47:52;4.70;;;4.30;;
14584;SDS011;7379;51.506;11.876;2022-08-21T01:50:19;5.20;;;4.70;;
14584;SDS011;7379;51.506;11.876;2022-08-21T01:52:47;5.00;;;4.60;;
14584;SDS011;7379;51.506;11.876;2022-08-21T01:55:15;4.70;;;4.30;;
14584;SDS011;7379;51.506;11.876;2022-08-21T01:57:44;5.00;;;4.50;;
14584;SDS011;7379;51.506;11.876;2022-08-21T02:00:12;4.60;;;4.20;;
14584;SDS011;7379;51.506;11.876;2022-08-21T02:02:41;4.75;;;4.35;;
14584;SDS011;7379;51.506;11.876;2022-08-21T02:05:09;4.38;;;3.97;;
14584;SDS011;7379;51.506;11.876;2022-08-21T02:07:37;4.78;;;4.38;;
14584;SDS011;7379;51.506;11.876;2022-08-21T02:10:05;4.30;;;3.90;;
14584;SDS011;7379;51.506;11.876;2022-08-21T02:12:35;4.40;;;4.00;;
14584;SDS011;7379;51.506;11.876;2022-08-21T02:15:02;4.50;;;4.10;;
14584;SDS011;7379;51.506;11.876;2022-08-21T02:17:36;4.20;;;3.80;;
14584;SDS011;7379;51.506;11.876;2022-08-21T02:20:04;4.00;;;3.70;;
14584;SDS011;7379;51.506;11.876;2022-08-21T02:22:31;5.65;;;3.70;;
14584;SDS011;7379;51.506;11.876;2022-08-21T02:24:58;4.40;;;3.97;;
14584;SDS011;7379;51.506;11.876;2022-08-21T02:27:25;5.57;;;3.97;;
14584;SDS011;7379;51.506;11.876;2022-08-21T02:29:54;4.03;;;3.65;;
14584;SDS011;7379;51.506;11.876;2022-08-21T02:32:22;4.22;;;3.83;;
14584;SDS011;7379;51.506;11.876;2022-08-21T02:34:50;4.00;;;3.70;;
14584;SDS011;7379;51.506;11.876;2022-08-21T02:37:17;4.90;;;4.22;;
14584;SDS011;7379;51.506;11.876;2022-08-21T02:39:44;4.30;;;3.90;;
14584;SDS011;7379;51.506;11.876;2022-08-21T02:42:10;4.20;;;3.80;;
14584;SDS011;7379;51.506;11.876;2022-08-21T02:44:37;4.88;;;4.15;;
14584;SDS011;7379;51.506;11.876;2022-08-21T02:47:05;4.65;;;4.10;;
14584;SDS011;7379;51.506;11.876;2022-08-21T02:49:32;4.10;;;3.70;;
14584;SDS011;7379;51.506;11.876;2022-08-21T02:51:59;3.97;;;3.63;;
14584;SDS011;7379;51.506;11.876;2022-08-21T02:54:26;4.72;;;3.72;;
14584;SDS011;7379;51.506;11.876;2022-08-21T02:56:52;3.97;;;3.58;;
14584;SDS011;7379;51.506;11.876;2022-08-21T02:59:19;4.00;;;3.60;;
14584;SDS011;7379;51.506;11.876;2022-08-21T03:01:46;4.88;;;3.85;;
14584;SDS011;7379;51.506;11.876;2022-08-21T03:04:14;4.35;;;3.90;;
14584;SDS011;7379;51.506;11.876;2022-08-21T03:06:41;3.97;;;3.65;;
14584;SDS011;7379;51.506;11.876;2022-08-21T03:09:08;4.03;;;3.60;;
14584;SDS011;7379;51.506;11.876;2022-08-21T03:11:34;3.80;;;3.50;;
14584;SDS011;7379;51.506;11.876;2022-08-21T03:14:01;4.32;;;3.92;;
14584;SDS011;7379;51.506;11.876;2022-08-21T03:16:30;3.75;;;3.35;;
14584;SDS011;7379;51.506;11.876;2022-08-21T03:18:57;4.00;;;3.70;;
14584;SDS011;7379;51.506;11.876;2022-08-21T03:21:26;4.65;;;3.60;;
14584;SDS011;7379;51.506;11.876;2022-08-21T03:23:53;4.03;;;3.50;;
14584;SDS011;7379;51.506;11.876;2022-08-21T03:26:20;4.20;;;3.50;;
14584;SDS011;7379;51.506;11.876;2022-08-21T03:28:47;4.40;;;3.53;;
14584;SDS011;7379;51.506;11.876;2022-08-21T03:31:15;3.58;;;3.28;;
14584;SDS011;7379;51.506;11.876;2022-08-21T03:33:42;4.40;;;3.47;;
14584;SDS011;7379;51.506;11.876;2022-08-21T03:36:09;3.83;;;3.40;;
14584;SDS011;7379;51.506;11.876;2022-08-21T03:38:38;3.58;;;3.28;;
14584;SDS011;7379;51.506;11.876;2022-08-21T03:41:05;3.60;;;3.30;;
14584;SDS011;7379;51.506;11.876;2022-08-21T03:43:33;3.92;;;3.42;;
14584;SDS011;7379;51.506;11.876;2022-08-21T03:46:01;3.88;;;3.35;;
14584;SDS011;7379;51.506;11.876;2022-08-21T03:48:29;3.80;;;3.40;;
14584;SDS011;7379;51.506;11.876;2022-08-21T03:50:56;3.97;;;3.30;;
14584;SDS011;7379;51.506;11.876;2022-08-21T03:53:23;3.67;;;3.30;;
14584;SDS011;7379;51.506;11.876;2022-08-21T03:55:52;3.50;;;3.17;;
14584;SDS011;7379;51.506;11.876;2022-08-21T03:58:19;3.55;;;3.25;;
14584;SDS011;7379;51.506;11.876;2022-08-21T04:00:49;3.47;;;3.17;;
14584;SDS011;7379;51.506;11.876;2022-08-21T04:03:19;3.60;;;3.30;;
14584;SDS011;7379;51.506;11.876;2022-08-21T04:05:46;3.60;;;3.10;;
14584;SDS011;7379;51.506;11.876;2022-08-21T04:08:13;4.15;;;3.38;;
14584;SDS011;7379;51.506;11.876;2022-08-21T04:10:42;4.05;;;3.20;;
14584;SDS011;7379;51.506;11.876;2022-08-21T04:13:13;3.63;;;3.17;;
14584;SDS011;7379;51.506;11.876;2022-08-21T04:15:40;3.40;;;3.10;;
14584;SDS011;7379;51.506;11.876;2022-08-21T04:18:07;3.88;;;3.33;;
14584;SDS011;7379;51.506;11.876;2022-08-21T04:20:34;3.65;;;3.20;;
14584;SDS011;7379;51.506;11.876;2022-08-21T04:23:01;3.75;;;3.25;;
14584;SDS011;7379;51.506;11.876;2022-08-21T04:25:29;3.75;;;3.17;;
14584;SDS011;7379;51.506;11.876;2022-08-21T04:27:56;3.55;;;3.20;;
14584;SDS011;7379;51.506;11.876;2022-08-21T04:30:24;3.53;;;3.22;;
14584;SDS011;7379;51.506;11.876;2022-08-21T04:32:51;3.50;;;3.20;;
14584;SDS011;7379;51.506;11.876;2022-08-21T04:35:19;3.30;;;2.95;;
14584;SDS011;7379;51.506;11.876;2022-08-21T04:37:47;4.78;;;3.17;;
14584;SDS011;7379;51.506;11.876;2022-08-21T04:40:15;3.55;;;3.20;;
14584;SDS011;7379;51.506;11.876;2022-08-21T04:42:44;3.10;;;2.83;;
14584;SDS011;7379;51.506;11.876;2022-08-21T04:45:18;3.58;;;2.70;;
14584;SDS011;7379;51.506;11.876;2022-08-21T04:47:49;3.25;;;2.67;;
14584;SDS011;7379;51.506;11.876;2022-08-21T04:50:16;3.35;;;2.92;;
14584;SDS011;7379;51.506;11.876;2022-08-21T04:52:43;4.10;;;2.95;;
14584;SDS011;7379;51.506;11.876;2022-08-21T04:55:11;4.82;;;2.80;;
14584;SDS011;7379;51.506;11.876;2022-08-21T04:57:38;2.85;;;2.65;;
14584;SDS011;7379;51.506;11.876;2022-08-21T05:00:07;3.85;;;2.80;;
14584;SDS011;7379;51.506;11.876;2022-08-21T05:02:37;2.75;;;2.53;;
14584;SDS011;7379;51.506;11.876;2022-08-21T05:05:07;3.30;;;2.80;;
14584;SDS011;7379;51.506;11.876;2022-08-21T05:07:34;2.80;;;2.60;;
14584;SDS011;7379;51.506;11.876;2022-08-21T05:10:03;2.80;;;2.60;;
14584;SDS011;7379;51.506;11.876;2022-08-21T05:12:32;4.18;;;2.80;;
14584;SDS011;7379;51.506;11.876;2022-08-21T05:15:00;3.45;;;2.65;;
14584;SDS011;7379;51.506;11.876;2022-08-21T05:17:27;2.80;;;2.55;;
14584;SDS011;7379;51.506;11.876;2022-08-21T05:19:54;3.75;;;2.90;;
14584;SDS011;7379;51.506;11.876;2022-08-21T05:22:22;2.75;;;2.50;;
14584;SDS011;7379;51.506;11.876;2022-08-21T05:24:50;2.95;;;2.45;;
14584;SDS011;7379;51.506;11.876;2022-08-21T05:27:17;4.18;;;2.65;;
14584;SDS011;7379;51.506;11.876;2022-08-21T05:29:44;3.55;;;2.67;;
14584;SDS011;7379;51.506;11.876;2022-08-21T05:32:11;4.00;;;2.40;;
14584;SDS011;7379;51.506;11.876;2022-08-21T05:34:39;3.65;;;2.72;;
14584;SDS011;7379;51.506;11.876;2022-08-21T05:37:06;4.65;;;2.53;;
14584;SDS011;7379;51.506;11.876;2022-08-21T05:39:34;2.70;;;2.35;;
14584;SDS011;7379;51.506;11.876;2022-08-21T05:42:01;2.95;;;2.50;;
14584;SDS011;7379;51.506;11.876;2022-08-21T05:44:28;3.60;;;2.25;;
14584;SDS011;7379;51.506;11.876;2022-08-21T05:47:01;4.75;;;2.40;;
14584;SDS011;7379;51.506;11.876;2022-08-21T05:49:29;3.13;;;2.35;;
14584;SDS011;7379;51.506;11.876;2022-08-21T05:51:55;4.03;;;2.55;;
14584;SDS011;7379;51.506;11.876;2022-08-21T05:54:22;3.78;;;2.67;;
14584;SDS011;7379;51.506;11.876;2022-08-21T05:56:51;2.85;;;2.50;;
14584;SDS011;7379;51.506;11.876;2022-08-21T05:59:17;2.90;;;2.50;;
14584;SDS011;7379;51.506;11.876;2022-08-21T06:01:44;3.03;;;2.42;;
14584;SDS011;7379;51.506;11.876;2022-08-21T06:04:11;3.55;;;2.28;;
14584;SDS011;7379;51.506;11.876;2022-08-21T06:06:39;3.80;;;2.70;;
14584;SDS011;7379;51.506;11.876;2022-08-21T06:09:06;3.40;;;2.40;;
14584;SDS011;7379;51.506;11.876;2022-08-21T06:11:33;4.22;;;2.35;;
14584;SDS011;7379;51.506;11.876;2022-08-21T06:14:01;3.28;;;2.30;;
14584;SDS011;7379;51.506;11.876;2022-08-21T06:16:28;4.20;;;2.60;;
14584;SDS011;7379;51.506;11.876;2022-08-21T06:18:55;3.25;;;2.35;;
14584;SDS011;7379;51.506;11.876;2022-08-21T06:21:21;5.07;;;2.50;;
14584;SDS011;7379;51.506;11.876;2022-08-21T06:23:48;5.47;;;2.65;;
14584;SDS011;7379;51.506;11.876;2022-08-21T06:26:15;3.88;;;2.90;;
14584;SDS011;7379;51.506;11.876;2022-08-21T06:28:42;4.45;;;2.33;;
14584;SDS011;7379;51.506;11.876;2022-08-21T06:31:11;4.20;;;2.40;;
14584;SDS011;7379;51.506;11.876;2022-08-21T06:33:39;4.40;;;2.70;;
14584;SDS011;7379;51.506;11.876;2022-08-21T06:36:06;3.28;;;2.30;;
14584;SDS011;7379;51.506;11.876;2022-08-21T06:38:34;3.78;;;2.53;;
14584;SDS011;7379;51.506;11.876;2022-08-21T06:41:01;2.58;;;2.25;;
14584;SDS011;7379;51.506;11.876;2022-08-21T06:43:27;3.45;;;2.40;;
14584;SDS011;7379;51.506;11.876;2022-08-21T06:45:54;3.10;;;2.50;;
14584;SDS011;7379;51.506;11.876;2022-08-21T06:48:23;3.38;;;2.10;;
14584;SDS011;7379;51.506;11.876;2022-08-21T06:50:50;4.60;;;2.38;;
14584;SDS011;7379;51.506;11.876;2022-08-21T06:53:17;3.85;;;2.45;;
14584;SDS011;7379;51.506;11.876;2022-08-21T06:55:46;3.70;;;2.40;;
14584;SDS011;7379;51.506;11.876;2022-08-21T06:58:13;3.80;;;2.50;;
14584;SDS011;7379;51.506;11.876;2022-08-21T07:00:41;2.63;;;2.20;;
14584;SDS011;7379;51.506;11.876;2022-08-21T07:03:15;5.70;;;2.55;;
14584;SDS011;7379;51.506;11.876;2022-08-21T07:05:47;3.40;;;2.45;;
14584;SDS011;7379;51.506;11.876;2022-08-21T07:08:14;3.95;;;2.60;;
14584;SDS011;7379;51.506;11.876;2022-08-21T07:10:41;2.95;;;2.15;;
14584;SDS011;7379;51.506;11.876;2022-08-21T07:13:08;2.60;;;2.20;;
14584;SDS011;7379;51.506;11.876;2022-08-21T07:15:35;3.40;;;2.47;;
14584;SDS011;7379;51.506;11.876;2022-08-21T07:18:02;2.90;;;2.38;;
14584;SDS011;7379;51.506;11.876;2022-08-21T07:20:29;3.60;;;2.30;;
14584;SDS011;7379;51.506;11.876;2022-08-21T07:22:59;3.78;;;2.58;;
14584;SDS011;7379;51.506;11.876;2022-08-21T07:25:27;2.80;;;2.38;;
14584;SDS011;7379;51.506;11.876;2022-08-21T07:27:55;4.88;;;2.45;;
14584;SDS011;7379;51.506;11.876;2022-08-21T07:30:22;2.70;;;2.40;;
14584;SDS011;7379;51.506;11.876;2022-08-21T07:32:49;3.45;;;2.30;;
14584;SDS011;7379;51.506;11.876;2022-08-21T07:35:16;3.42;;;2.70;;
14584;SDS011;7379;51.506;11.876;2022-08-21T07:37:44;4.53;;;2.13;;
14584;SDS011;7379;51.506;11.876;2022-08-21T07:40:12;3.10;;;2.30;;
14584;SDS011;7379;51.506;11.876;2022-08-21T07:42:40;3.50;;;2.40;;
14584;SDS011;7379;51.506;11.876;2022-08-21T07:45:08;5.07;;;2.58;;
14584;SDS011;7379;51.506;11.876;2022-08-21T07:47:36;3.60;;;2.40;;
14584;SDS011;7379;51.506;11.876;2022-08-21T07:50:04;4.53;;;2.50;;
14584;SDS011;7379;51.506;11.876;2022-08-21T07:52:32;2.70;;;2.25;;
14584;SDS011;7379;51.506;11.876;2022-08-21T07:54:59;3.17;;;2.22;;
14584;SDS011;7379;51.506;11.876;2022-08-21T07:57:27;2.95;;;2.28;;
14584;SDS011;7379;51.506;11.876;2022-08-21T07:59:54;4.20;;;2.40;;
14584;SDS011;7379;51.506;11.876;2022-08-21T08:02:22;3.92;;;2.50;;
14584;SDS011;7379;51.506;11.876;2022-08-21T08:04:50;4.38;;;2.40;;
14584;SDS011;7379;51.506;11.876;2022-08-21T08:07:17;4.18;;;2.30;;
14584;SDS011;7379;51.506;11.876;2022-08-21T08:09:43;4.28;;;2.25;;
14584;SDS011;7379;51.506;11.876;2022-08-21T08:12:11;4.47;;;2.30;;
14584;SDS011;7379;51.506;11.876;2022-08-21T08:14:39;3.50;;;2.10;;
14584;SDS011;7379;51.506;11.876;2022-08-21T08:17:06;4.65;;;2.60;;
14584;SDS011;7379;51.506;11.876;2022-08-21T08:19:32;3.35;;;2.40;;
14584;SDS011;7379;51.506;11.876;2022-08-21T08:21:59;3.45;;;2.35;;
14584;SDS011;7379;51.506;11.876;2022-08-21T08:24:26;3.88;;;2.35;;
14584;SDS011;7379;51.506;11.876;2022-08-21T08:26:53;3.25;;;2.30;;
14584;SDS011;7379;51.506;11.876;2022-08-21T08:29:21;3.95;;;2.38;;
14584;SDS011;7379;51.506;11.876;2022-08-21T08:31:50;4.25;;;2.55;;
14584;SDS011;7379;51.506;11.876;2022-08-21T08:34:16;2.95;;;2.38;;
14584;SDS011;7379;51.506;11.876;2022-08-21T08:36:44;2.58;;;2.05;;
14584;SDS011;7379;51.506;11.876;2022-08-21T08:39:11;4.07;;;2.33;;
14584;SDS011;7379;51.506;11.876;2022-08-21T08:41:38;4.13;;;2.40;;
14584;SDS011;7379;51.506;11.876;2022-08-21T08:44:07;6.65;;;2.53;;
14584;SDS011;7379;51.506;11.876;2022-08-21T08:46:35;2.47;;;2.10;;
14584;SDS011;7379;51.506;11.876;2022-08-21T08:49:08;4.35;;;2.45;;
14584;SDS011;7379;51.506;11.876;2022-08-21T08:51:41;3.88;;;2.38;;
14584;SDS011;7379;51.506;11.876;2022-08-21T08:54:12;3.63;;;2.30;;
14584;SDS011;7379;51.506;11.876;2022-08-21T08:56:43;4.18;;;2.30;;
14584;SDS011;7379;51.506;11.876;2022-08-21T08:59:13;3.95;;;2.50;;
14584;SDS011;7379;51.506;11.876;2022-08-21T09:01:44;3.78;;;2.20;;
14584;SDS011;7379;51.506;11.876;2022-08-21T09:04:12;3.65;;;2.47;;
14584;SDS011;7379;51.506;11.876;2022-08-21T09:06:48;3.40;;;2.13;;
14584;SDS011;7379;51.506;11.876;2022-08-21T09:09:25;4.28;;;2.38;;
14584;SDS011;7379;51.506;11.876;2022-08-21T09:12:02;3.53;;;2.30;;
14584;SDS011;7379;51.506;11.876;2022-08-21T09:14:42;4.75;;;2.40;;
14584;SDS011;7379;51.506;11.876;2022-08-21T09:17:30;4.50;;;2.42;;
14584;SDS011;7379;51.506;11.876;2022-08-21T09:20:12;4.65;;;2.47;;
14584;SDS011;7379;51.506;11.876;2022-08-21T09:22:47;4.15;;;2.55;;
14584;SDS011;7379;51.506;11.876;2022-08-21T09:25:24;3.70;;;2.20;;
14584;SDS011;7379;51.506;11.876;2022-08-21T09:27:53;5.43;;;2.60;;
14584;SDS011;7379;51.506;11.876;2022-08-21T09:30:24;5.55;;;2.42;;
14584;SDS011;7379;51.506;11.876;2022-08-21T09:32:53;3.80;;;2.50;;
14584;SDS011;7379;51.506;11.876;2022-08-21T09:35:23;2.80;;;2.08;;
14584;SDS011;7379;51.506;11.876;2022-08-21T09:37:52;2.70;;;2.10;;
14584;SDS011;7379;51.506;11.876;2022-08-21T09:40:25;5.05;;;2.58;;
14584;SDS011;7379;51.506;11.876;2022-08-21T09:43:00;4.78;;;2.58;;
14584;SDS011;7379;51.506;11.876;2022-08-21T09:45:28;5.00;;;2.50;;
14584;SDS011;7379;51.506;11.876;2022-08-21T09:47:56;4.22;;;2.42;;
14584;SDS011;7379;51.506;11.876;2022-08-21T09:50:35;5.35;;;2.25;;
14584;SDS011;7379;51.506;11.876;2022-08-21T09:53:02;5.63;;;2.17;;
14584;SDS011;7379;51.506;11.876;2022-08-21T09:55:31;3.38;;;2.22;;
14584;SDS011;7379;51.506;11.876;2022-08-21T09:58:18;3.58;;;2.42;;
14584;SDS011;7379;51.506;11.876;2022-08-21T10:00:45;4.75;;;2.58;;
14584;SDS011;7379;51.506;11.876;2022-08-21T10:03:23;3.25;;;2.40;;
14584;SDS011;7379;51.506;11.876;2022-08-21T10:05:53;4.60;;;2.30;;
14584;SDS011;7379;51.506;11.876;2022-08-21T10:08:23;4.40;;;2.50;;
14584;SDS011;7379;51.506;11.876;2022-08-21T10:10:54;2.90;;;2.30;;
14584;SDS011;7379;51.506;11.876;2022-08-21T10:13:28;4.25;;;2.20;;
14584;SDS011;7379;51.506;11.876;2022-08-21T10:16:10;3.53;;;2.20;;
14584;SDS011;7379;51.506;11.876;2022-08-21T10:18:45;4.35;;;2.33;;
14584;SDS011;7379;51.506;11.876;2022-08-21T10:21:21;4.60;;;2.50;;
14584;SDS011;7379;51.506;11.876;2022-08-21T10:23:55;4.70;;;2.40;;
14584;SDS011;7379;51.506;11.876;2022-08-21T10:26:32;4.38;;;2.47;;
14584;SDS011;7379;51.506;11.876;2022-08-21T10:29:12;4.82;;;2.60;;
14584;SDS011;7379;51.506;11.876;2022-08-21T10:31:48;4.45;;;2.50;;
14584;SDS011;7379;51.506;11.876;2022-08-21T10:34:25;4.45;;;2.30;;
14584;SDS011;7379;51.506;11.876;2022-08-21T10:37:05;3.85;;;2.22;;
14584;SDS011;7379;51.506;11.876;2022-08-21T10:39:42;4.38;;;2.60;;
14584;SDS011;7379;51.506;11.876;2022-08-21T10:42:31;4.78;;;2.33;;
14584;SDS011;7379;51.506;11.876;2022-08-21T10:45:07;3.63;;;2.25;;
14584;SDS011;7379;51.506;11.876;2022-08-21T10:47:41;4.30;;;2.30;;
14584;SDS011;7379;51.506;11.876;2022-08-21T10:50:15;5.60;;;2.53;;
14584;SDS011;7379;51.506;11.876;2022-08-21T10:52:53;3.53;;;2.40;;
14584;SDS011;7379;51.506;11.876;2022-08-21T10:55:35;4.57;;;2.50;;
14584;SDS011;7379;51.506;11.876;2022-08-21T10:58:08;8.45;;;2.83;;
14584;SDS011;7379;51.506;11.876;2022-08-21T11:00:39;3.85;;;2.13;;
14584;SDS011;7379;51.506;11.876;2022-08-21T11:03:11;3.85;;;2.40;;
14584;SDS011;7379;51.506;11.876;2022-08-21T11:05:43;4.53;;;2.42;;
14584;SDS011;7379;51.506;11.876;2022-08-21T11:08:18;4.30;;;2.40;;
14584;SDS011;7379;51.506;11.876;2022-08-21T11:10:50;3.25;;;2.42;;
14584;SDS011;7379;51.506;11.876;2022-08-21T11:13:24;3.67;;;2.50;;
14584;SDS011;7379;51.506;11.876;2022-08-21T11:15:58;4.90;;;2.40;;
14584;SDS011;7379;51.506;11.876;2022-08-21T11:18:32;5.35;;;2.33;;
14584;SDS011;7379;51.506;11.876;2022-08-21T11:21:09;4.78;;;2.38;;
14584;SDS011;7379;51.506;11.876;2022-08-21T11:23:56;3.88;;;2.53;;
14584;SDS011;7379;51.506;11.876;2022-08-21T11:26:30;5.95;;;2.70;;
14584;SDS011;7379;51.506;11.876;2022-08-21T11:29:04;4.80;;;2.80;;
14584;SDS011;7379;51.506;11.876;2022-08-21T11:31:41;3.72;;;2.45;;
14584;SDS011;7379;51.506;11.876;2022-08-21T11:34:24;3.95;;;2.45;;
14584;SDS011;7379;51.506;11.876;2022-08-21T11:37:03;3.47;;;2.40;;
14584;SDS011;7379;51.506;11.876;2022-08-21T11:39:40;4.43;;;2.55;;
14584;SDS011;7379;51.506;11.876;2022-08-21T11:42:18;4.72;;;2.63;;
14584;SDS011;7379;51.506;11.876;2022-08-21T11:44:52;4.68;;;2.67;;
14584;SDS011;7379;51.506;11.876;2022-08-21T11:47:30;4.75;;;2.67;;
14584;SDS011;7379;51.506;11.876;2022-08-21T11:50:05;4.32;;;2.50;;
14584;SDS011;7379;51.506;11.876;2022-08-21T11:52:40;4.15;;;2.50;;
14584;SDS011;7379;51.506;11.876;2022-08-21T11:55:14;3.75;;;2.65;;
14584;SDS011;7379;51.506;11.876;2022-08-21T11:57:46;10.30;;;3.40;;
14584;SDS011;7379;51.506;11.876;2022-08-21T12:00:19;6.60;;;2.97;;
14584;SDS011;7379;51.506;11.876;2022-08-21T12:02:51;6.15;;;2.95;;
14584;SDS011;7379;51.506;11.876;2022-08-21T12:05:26;4.57;;;2.80;;
14584;SDS011;7379;51.506;11.876;2022-08-21T12:08:02;4.47;;;2.70;;
14584;SDS011;7379;51.506;11.876;2022-08-21T12:10:34;6.15;;;2.92;;
14584;SDS011;7379;51.506;11.876;2022-08-21T12:13:09;9.95;;;3.22;;
14584;SDS011;7379;51.506;11.876;2022-08-21T12:15:38;12.88;;;3.05;;
14584;SDS011;7379;51.506;11.876;2022-08-21T12:18:06;10.63;;;3.50;;
14584;SDS011;7379;51.506;11.876;2022-08-21T12:20:57;7.57;;;2.88;;
14584;SDS011;7379;51.506;11.876;2022-08-21T12:23:29;6.18;;;2.70;;
14584;SDS011;7379;51.506;11.876;2022-08-21T12:26:03;5.70;;;2.88;;
14584;SDS011;7379;51.506;11.876;2022-08-21T12:28:43;23.48;;;4.60;;
14584;SDS011;7379;51.506;11.876;2022-08-21T12:31:17;18.50;;;4.00;;
14584;SDS011;7379;51.506;11.876;2022-08-21T12:33:49;6.88;;;3.20;;
14584;SDS011;7379;51.506;11.876;2022-08-21T12:36:20;6.45;;;2.88;;
14584;SDS011;7379;51.506;11.876;2022-08-21T12:38:51;6.70;;;3.00;;
14584;SDS011;7379;51.506;11.876;2022-08-21T12:41:26;5.35;;;3.08;;
14584;SDS011;7379;51.506;11.876;2022-08-21T12:43:57;5.05;;;3.00;;
14584;SDS011;7379;51.506;11.876;2022-08-21T12:46:30;4.70;;;2.92;;
14584;SDS011;7379;51.506;11.876;2022-08-21T12:49:03;4.95;;;2.97;;
14584;SDS011;7379;51.506;11.876;2022-08-21T12:51:42;4.22;;;3.00;;
14584;SDS011;7379;51.506;11.876;2022-08-21T12:54:21;4.80;;;3.00;;
14584;SDS011;7379;51.506;11.876;2022-08-21T12:56:58;5.07;;;3.00;;
14584;SDS011;7379;51.506;11.876;2022-08-21T12:59:26;5.30;;;2.95;;
14584;SDS011;7379;51.506;11.876;2022-08-21T13:01:54;5.13;;;3.00;;
14584;SDS011;7379;51.506;11.876;2022-08-21T13:04:23;5.05;;;3.05;;
14584;SDS011;7379;51.506;11.876;2022-08-21T13:06:55;4.35;;;2.75;;
14584;SDS011;7379;51.506;11.876;2022-08-21T13:09:26;6.32;;;3.08;;
14584;SDS011;7379;51.506;11.876;2022-08-21T13:11:54;4.97;;;3.70;;
14584;SDS011;7379;51.506;11.876;2022-08-21T13:14:24;6.88;;;3.50;;
14584;SDS011;7379;51.506;11.876;2022-08-21T13:16:55;6.93;;;3.35;;
14584;SDS011;7379;51.506;11.876;2022-08-21T13:19:23;6.35;;;3.40;;
14584;SDS011;7379;51.506;11.876;2022-08-21T13:21:51;5.40;;;2.95;;
14584;SDS011;7379;51.506;11.876;2022-08-21T13:24:19;5.60;;;3.38;;
14584;SDS011;7379;51.506;11.876;2022-08-21T13:26:47;4.82;;;3.05;;
14584;SDS011;7379;51.506;11.876;2022-08-21T13:29:16;6.10;;;3.17;;
14584;SDS011;7379;51.506;11.876;2022-08-21T13:31:48;6.43;;;3.10;;
14584;SDS011;7379;51.506;11.876;2022-08-21T13:34:18;4.70;;;2.92;;
14584;SDS011;7379;51.506;11.876;2022-08-21T13:36:46;6.95;;;3.28;;
14584;SDS011;7379;51.506;11.876;2022-08-21T13:39:17;5.65;;;3.03;;
14584;SDS011;7379;51.506;11.876;2022-08-21T13:41:48;10.05;;;3.25;;
14584;SDS011;7379;51.506;11.876;2022-08-21T13:44:18;5.75;;;2.90;;
14584;SDS011;7379;51.506;11.876;2022-08-21T13:46:48;7.22;;;3.03;;
14584;SDS011;7379;51.506;11.876;2022-08-21T13:49:16;4.90;;;3.08;;
14584;SDS011;7379;51.506;11.876;2022-08-21T13:51:45;6.28;;;3.30;;
14584;SDS011;7379;51.506;11.876;2022-08-21T13:54:16;4.50;;;2.80;;
14584;SDS011;7379;51.506;11.876;2022-08-21T13:56:48;5.82;;;3.00;;
14584;SDS011;7379;51.506;11.876;2022-08-21T13:59:23;4.40;;;2.95;;
14584;SDS011;7379;51.506;11.876;2022-08-21T14:01:53;8.02;;;2.88;;
14584;SDS011;7379;51.506;11.876;2022-08-21T14:04:24;8.50;;;3.30;;
14584;SDS011;7379;51.506;11.876;2022-08-21T14:06:57;8.32;;;3.17;;
14584;SDS011;7379;51.506;11.876;2022-08-21T14:09:25;4.65;;;2.88;;
14584;SDS011;7379;51.506;11.876;2022-08-21T14:11:56;6.53;;;3.00;;
14584;SDS011;7379;51.506;11.876;2022-08-21T14:14:26;6.40;;;3.25;;
14584;SDS011;7379;51.506;11.876;2022-08-21T14:16:57;5.80;;;3.10;;
14584;SDS011;7379;51.506;11.876;2022-08-21T14:19:26;5.07;;;2.92;;
14584;SDS011;7379;51.506;11.876;2022-08-21T14:22:12;4.03;;;2.90;;
14584;SDS011;7379;51.506;11.876;2022-08-21T14:24:49;6.38;;;3.20;;
14584;SDS011;7379;51.506;11.876;2022-08-21T14:27:24;5.20;;;3.10;;
14584;SDS011;7379;51.506;11.876;2022-08-21T14:29:56;6.45;;;2.95;;
14584;SDS011;7379;51.506;11.876;2022-08-21T14:32:26;8.07;;;3.20;;
14584;SDS011;7379;51.506;11.876;2022-08-21T14:34:55;9.50;;;3.17;;
14584;SDS011;7379;51.506;11.876;2022-08-21T14:37:23;14.55;;;3.67;;
14584;SDS011;7379;51.506;11.876;2022-08-21T14:39:51;7.18;;;2.85;;
14584;SDS011;7379;51.506;11.876;2022-08-21T14:42:17;7.68;;;3.17;;
14584;SDS011;7379;51.506;11.876;2022-08-21T14:44:45;4.90;;;2.90;;
14584;SDS011;7379;51.506;11.876;2022-08-21T14:47:12;4.18;;;2.80;;
14584;SDS011;7379;51.506;11.876;2022-08-21T14:49:40;23.00;;;3.95;;
14584;SDS011;7379;51.506;11.876;2022-08-21T14:52:07;14.82;;;3.45;;
14584;SDS011;7379;51.506;11.876;2022-08-21T14:54:35;8.48;;;3.17;;
14584;SDS011;7379;51.506;11.876;2022-08-21T14:57:02;5.38;;;2.63;;
14584;SDS011;7379;51.506;11.876;2022-08-21T14:59:32;5.45;;;2.78;;
14584;SDS011;7379;51.506;11.876;2022-08-21T15:01:59;5.10;;;2.70;;
14584;SDS011;7379;51.506;11.876;2022-08-21T15:04:26;5.20;;;2.80;;